Time;durP1;ratioP1;P1;durP2;ratioP2;P2;SDS_P1;SDS_P2;PMS_P1;PMS_P2;Temp;Humidity;BMP_temperature;BMP_pressure;BME280_temperature;BME280_humidity;BME280_pressure;Samples;Min_cycle;Max_cycle;Signal;HPM_P1;HPM_P2
2022/11/22 00:00:27;;;;;;;;;;;16.00;65.10;;;;;;10382134;28;19991;-66
2022/11/22 00:05:28;;;;;;;;;;;16.00;65.00;;;;;;10385374;28;19938;-67
2022/11/22 00:10:30;;;;;;;;;;;16.00;65.00;;;;;;10385771;28;20424;-67
2022/11/22 00:15:32;;;;;;;;;;;16.00;65.10;;;;;;10385816;28;20072;-67
2022/11/22 00:20:34;;;;;;;;;;;15.90;65.10;;;;;;10384647;28;20293;-67
2022/11/22 00:25:36;;;;;;;;;;;15.90;65.20;;;;;;10384440;28;20008;-67
2022/11/22 00:30:38;;;;;;;;;;;15.90;65.30;;;;;;10384978;28;19934;-68
2022/11/22 00:35:40;;;;;;;;;;;15.80;65.30;;;;;;10384219;28;19940;-67
2022/11/22 00:40:42;;;;;;;;;;;15.80;65.30;;;;;;10384032;28;20307;-68
2022/11/22 00:45:43;;;;;;;;;;;15.70;65.30;;;;;;10384072;28;19934;-67
2022/11/22 00:50:47;;;;;;;;;;;15.70;65.40;;;;;;10384137;28;20046;-67
2022/11/22 00:55:49;;;;;;;;;;;15.70;65.50;;;;;;10384426;28;20024;-68
2022/11/22 01:00:51;;;;;;;;;;;15.70;65.80;;;;;;10384147;28;20083;-67
2022/11/22 01:05:57;;;;;;;;;;;15.70;65.60;;;;;;10383633;28;20174;-67
2022/11/22 01:11:00;;;;;;;;;;;15.80;65.60;;;;;;10382756;28;20024;-66
2022/11/22 01:16:03;;;;;;;;;;;15.80;65.40;;;;;;10383408;28;20044;-67
2022/11/22 01:21:05;;;;;;;;;;;15.80;65.40;;;;;;10383214;28;20325;-67
2022/11/22 01:26:07;;;;;;;;;;;15.80;65.30;;;;;;10381605;28;20415;-67
2022/11/22 01:31:09;;;;;;;;;;;15.80;65.30;;;;;;10383846;28;20033;-67
2022/11/22 01:36:11;;;;;;;;;;;15.80;65.40;;;;;;10383174;28;20541;-67
2022/11/22 01:41:13;;;;;;;;;;;15.70;65.40;;;;;;10382746;28;20027;-66
2022/11/22 01:46:20;;;;;;;;;;;15.80;65.50;;;;;;10381457;28;20012;-67
2022/11/22 01:51:28;;;;;;;;;;;15.80;65.40;;;;;;10382940;28;19940;-67
2022/11/22 01:56:31;;;;;;;;;;;15.80;65.30;;;;;;10381981;28;20029;-67
2022/11/22 02:07:09;;;;;;;;;;;15.80;65.10;;;;;;10297685;28;20032;-66
2022/11/22 02:12:12;;;;;;;;;;;15.80;65.20;;;;;;10300984;28;20419;-66
2022/11/22 02:17:13;;;;;;;;;;;15.80;65.20;;;;;;10301074;28;19941;-66
2022/11/22 02:22:24;;;;;;;;;;;15.70;65.20;;;;;;10301520;28;19985;-66
2022/11/22 02:27:26;;;;;;;;;;;15.70;65.40;;;;;;10307710;28;20013;-66
2022/11/22 02:32:27;;;;;;;;;;;15.70;65.50;;;;;;10307711;28;19990;-66
2022/11/22 02:37:31;;;;;;;;;;;15.70;65.50;;;;;;10308210;28;20815;-66
2022/11/22 02:42:34;;;;;;;;;;;15.60;65.50;;;;;;10306272;28;20025;-67
2022/11/22 02:47:35;;;;;;;;;;;15.60;65.60;;;;;;10306315;28;20732;-66
2022/11/22 02:52:37;;;;;;;;;;;15.60;65.70;;;;;;10306413;28;20319;-66
2022/11/22 02:57:39;;;;;;;;;;;15.60;65.90;;;;;;10307845;28;19934;-66
2022/11/22 03:02:41;;;;;;;;;;;15.60;65.80;;;;;;10305908;28;19986;-66
2022/11/22 03:07:42;;;;;;;;;;;15.70;66.70;;;;;;10304772;28;19980;-66
2022/11/22 03:12:44;;;;;;;;;;;15.80;65.40;;;;;;10306154;28;19935;-67
2022/11/22 03:17:46;;;;;;;;;;;15.80;65.30;;;;;;10306568;28;20282;-66
2022/11/22 03:22:48;;;;;;;;;;;15.90;65.20;;;;;;10306187;28;19934;-67
2022/11/22 03:27:49;;;;;;;;;;;15.90;65.10;;;;;;10306164;28;19941;-66
2022/11/22 03:32:51;;;;;;;;;;;15.90;65.10;;;;;;10305762;28;19973;-66
2022/11/22 03:37:53;;;;;;;;;;;15.90;65.20;;;;;;10306484;28;20021;-66
2022/11/22 03:42:57;;;;;;;;;;;15.80;65.10;;;;;;10305411;28;20005;-66
2022/11/22 03:47:58;;;;;;;;;;;15.80;65.20;;;;;;10305802;28;19961;-66
2022/11/22 03:53:00;;;;;;;;;;;15.70;65.30;;;;;;10303547;28;20401;-66
2022/11/22 03:58:02;;;;;;;;;;;15.70;65.40;;;;;;10305059;28;20416;-66
2022/11/22 04:03:04;;;;;;;;;;;15.70;65.50;;;;;;10304793;28;20021;-66
2022/11/22 04:08:06;;;;;;;;;;;15.60;65.50;;;;;;10304601;28;20029;-66
2022/11/22 04:13:07;;;;;;;;;;;15.60;65.60;;;;;;10304530;28;20780;-66
2022/11/22 04:18:09;;;;;;;;;;;15.60;65.70;;;;;;10304127;28;19981;-67
2022/11/22 04:23:21;;;;;;;;;;;15.50;65.80;;;;;;10304068;28;20089;-66
2022/11/22 04:28:23;;;;;;;;;;;15.50;66.00;;;;;;10304156;28;20037;-66
2022/11/22 04:33:45;;;;;;;;;;;15.60;66.00;;;;;;10303476;28;19957;-66
2022/11/22 04:38:48;;;;;;;;;;;15.70;65.80;;;;;;10303109;28;20775;-67
2022/11/22 04:49:10;;;;;;;;;;;15.70;65.60;;;;;;10302314;28;19978;-68
2022/11/22 04:54:11;;;;;;;;;;;15.60;65.60;;;;;;10302721;28;20017;-66
2022/11/22 04:59:13;;;;;;;;;;;15.60;65.60;;;;;;10302056;28;20021;-66
2022/11/22 05:04:15;;;;;;;;;;;15.60;65.70;;;;;;10302552;28;19982;-66
2022/11/22 05:09:17;;;;;;;;;;;15.70;65.60;;;;;;10300904;28;20033;-66
2022/11/22 05:14:19;;;;;;;;;;;15.70;65.50;;;;;;10300369;28;20030;-66
2022/11/22 05:19:21;;;;;;;;;;;15.70;65.40;;;;;;10302501;28;20028;-67
2022/11/22 05:24:23;;;;;;;;;;;15.70;65.40;;;;;;10302580;28;19941;-66
2022/11/22 05:29:24;;;;;;;;;;;15.70;65.40;;;;;;10302984;28;20008;-66
2022/11/22 05:34:26;;;;;;;;;;;15.60;65.30;;;;;;10303262;28;20057;-66
2022/11/22 05:39:28;;;;;;;;;;;15.70;65.40;;;;;;10301751;28;19941;-67
2022/11/22 05:44:30;;;;;;;;;;;15.70;65.60;;;;;;10301068;28;19938;-66
2022/11/22 05:49:32;;;;;;;;;;;15.70;65.60;;;;;;10301343;28;19934;-66
2022/11/22 05:54:34;;;;;;;;;;;15.90;65.40;;;;;;10301625;28;19941;-66
2022/11/22 05:59:35;;;;;;;;;;;16.10;65.10;;;;;;10300190;28;20010;-67
2022/11/22 06:04:44;;;;;;;;;;;16.30;64.70;;;;;;10300235;28;19957;-66
2022/11/22 06:09:46;;;;;;;;;;;16.40;64.30;;;;;;10301673;28;20337;-66
2022/11/22 06:14:48;;;;;;;;;;;16.40;64.10;;;;;;10300835;28;20088;-66
2022/11/22 06:19:50;;;;;;;;;;;16.40;64.00;;;;;;10300795;28;19934;-67
2022/11/22 06:24:51;;;;;;;;;;;16.40;64.10;;;;;;10300946;28;19976;-66
2022/11/22 06:29:53;;;;;;;;;;;16.30;64.10;;;;;;10299579;28;19981;-66
2022/11/22 06:34:55;;;;;;;;;;;16.30;64.20;;;;;;10309537;28;20025;-66
2022/11/22 06:39:56;;;;;;;;;;;16.30;64.30;;;;;;10340954;28;20377;-68
2022/11/22 06:44:58;;;;;;;;;;;16.20;64.50;;;;;;10340520;28;19936;-69
2022/11/22 06:50:00;;;;;;;;;;;16.20;65.40;;;;;;10340442;28;19934;-68
2022/11/22 06:55:02;;;;;;;;;;;16.30;66.10;;;;;;10340869;28;20002;-68
2022/11/22 07:00:09;;;;;;;;;;;16.40;65.90;;;;;;10338753;28;19985;-71
2022/11/22 07:05:11;;;;;;;;;;;16.70;65.60;;;;;;10338384;28;19940;-67
2022/11/22 07:10:28;;;;;;;;;;;16.90;65.30;;;;;;10298677;28;20021;-67
2022/11/22 07:15:30;;;;;;;;;;;17.00;64.70;;;;;;10294860;28;20036;-69
2022/11/22 07:20:32;;;;;;;;;;;17.00;64.60;;;;;;10286790;28;19941;-68
2022/11/22 07:25:34;;;;;;;;;;;16.90;64.70;;;;;;10267217;28;19935;-68
2022/11/22 07:30:35;;;;;;;;;;;16.90;67.40;;;;;;10281688;28;19962;-68
2022/11/22 07:35:44;;;;;;;;;;;16.80;68.50;;;;;;10292672;28;19935;-69
2022/11/22 07:40:46;;;;;;;;;;;16.70;67.40;;;;;;10296499;28;20479;-68
2022/11/22 07:45:48;;;;;;;;;;;16.60;67.70;;;;;;10298683;28;20483;-69
2022/11/22 07:50:50;;;;;;;;;;;16.50;67.90;;;;;;10291041;28;19973;-69
2022/11/22 07:55:51;;;;;;;;;;;16.40;68.00;;;;;;10267833;28;19935;-70
2022/11/22 08:00:53;;;;;;;;;;;16.30;68.00;;;;;;10290368;28;20565;-70
2022/11/22 08:05:59;;;;;;;;;;;16.30;68.10;;;;;;10281931;28;19970;-69
2022/11/22 08:11:01;;;;;;;;;;;16.20;68.20;;;;;;10293609;28;19934;-69
2022/11/22 08:16:04;;;;;;;;;;;16.10;68.80;;;;;;10300148;28;20018;-68
2022/11/22 08:21:11;;;;;;;;;;;16.10;69.00;;;;;;10286231;28;19974;-68
2022/11/22 08:26:15;;;;;;;;;;;16.00;69.20;;;;;;10281362;28;19938;-69
2022/11/22 08:31:20;;;;;;;;;;;15.90;69.30;;;;;;10266173;28;20648;-68
2022/11/22 08:36:22;;;;;;;;;;;15.90;69.60;;;;;;10284108;28;19935;-70
2022/11/22 08:41:24;;;;;;;;;;;15.80;69.60;;;;;;10280509;28;20371;-70
2022/11/22 08:46:26;;;;;;;;;;;15.80;69.80;;;;;;10260063;28;20025;-68
2022/11/22 08:51:28;;;;;;;;;;;15.80;69.60;;;;;;10259616;28;19934;-70
2022/11/22 08:56:29;;;;;;;;;;;15.80;69.50;;;;;;10259562;28;20380;-68
2022/11/22 09:01:31;;;;;;;;;;;15.70;69.40;;;;;;10259086;28;20034;-69
2022/11/22 09:06:35;;;;;;;;;;;15.70;69.30;;;;;;10259194;28;27515;-67
2022/11/22 09:11:56;;;;;;;;;;;15.70;69.20;;;;;;10257982;28;19966;-68
2022/11/22 09:16:58;;;;;;;;;;;15.60;69.20;;;;;;10262022;28;19941;-67
2022/11/22 09:22:00;;;;;;;;;;;15.60;69.10;;;;;;10262677;28;20371;-69
2022/11/22 09:27:02;;;;;;;;;;;15.60;69.00;;;;;;10262513;28;20006;-67
2022/11/22 09:32:03;;;;;;;;;;;15.60;68.90;;;;;;10261575;28;20390;-67
2022/11/22 09:37:05;;;;;;;;;;;15.60;68.90;;;;;;10262803;28;19941;-68
2022/11/22 09:42:09;;;;;;;;;;;15.50;68.90;;;;;;10260949;28;19941;-67
2022/11/22 09:47:30;;;;;;;;;;;15.50;69.00;;;;;;10262228;28;19941;-68
2022/11/22 09:52:37;;;;;;;;;;;15.50;68.90;;;;;;10260251;28;19934;-68
2022/11/22 09:57:43;;;;;;;;;;;15.50;68.90;;;;;;10243704;28;20018;-68
2022/11/22 10:02:47;;;;;;;;;;;15.40;68.80;;;;;;10260904;28;19990;-67
2022/11/22 10:08:04;;;;;;;;;;;15.40;68.80;;;;;;10260293;28;19935;-67
2022/11/22 10:13:13;;;;;;;;;;;15.40;68.60;;;;;;10261154;28;20302;-68
2022/11/22 10:18:18;;;;;;;;;;;15.40;69.00;;;;;;10260972;28;20017;-68
2022/11/22 10:23:22;;;;;;;;;;;15.50;68.80;;;;;;10260117;28;19938;-68
2022/11/22 10:28:29;;;;;;;;;;;15.60;68.50;;;;;;10260928;28;19934;-68
2022/11/22 10:33:34;;;;;;;;;;;15.60;68.30;;;;;;10261548;28;20022;-69
2022/11/22 10:38:51;;;;;;;;;;;15.60;68.20;;;;;;10259231;28;20017;-68
2022/11/22 10:44:05;;;;;;;;;;;15.60;68.20;;;;;;10260859;28;19990;-68
2022/11/22 10:49:13;;;;;;;;;;;15.60;68.20;;;;;;10267344;28;20337;-69
2022/11/22 10:54:20;;;;;;;;;;;15.60;68.20;;;;;;10265997;28;20508;-68
2022/11/22 10:59:38;;;;;;;;;;;15.60;68.20;;;;;;10267169;28;19982;-68
2022/11/22 11:04:41;;;;;;;;;;;15.50;68.20;;;;;;10266730;28;19957;-69
2022/11/22 11:09:45;;;;;;;;;;;15.50;68.20;;;;;;10267866;28;19997;-69
2022/11/22 11:15:20;;;;;;;;;;;15.40;68.20;;;;;;10266026;28;19935;-69
2022/11/22 11:20:24;;;;;;;;;;;15.40;68.20;;;;;;10265809;28;20348;-67
2022/11/22 11:25:25;;;;;;;;;;;15.40;68.30;;;;;;10249660;28;20045;-67
2022/11/22 11:30:27;;;;;;;;;;;15.40;68.30;;;;;;10266628;28;20660;-69
2022/11/22 11:35:29;;;;;;;;;;;15.30;68.30;;;;;;10266157;28;20014;-69
2022/11/22 11:40:31;;;;;;;;;;;15.30;68.40;;;;;;10265722;28;20014;-67
2022/11/22 11:45:33;;;;;;;;;;;15.30;68.40;;;;;;10265428;28;20033;-69
2022/11/22 11:50:35;;;;;;;;;;;15.30;68.60;;;;;;10265694;28;20046;-68
2022/11/22 11:55:36;;;;;;;;;;;15.40;68.60;;;;;;10265024;28;20026;-69
2022/11/22 12:00:38;;;;;;;;;;;15.40;68.20;;;;;;10264398;28;19935;-69
2022/11/22 12:05:40;;;;;;;;;;;15.50;67.90;;;;;;10247042;28;20375;-68
2022/11/22 12:10:54;;;;;;;;;;;15.50;67.80;;;;;;10265186;28;19959;-68
2022/11/22 12:16:14;;;;;;;;;;;15.50;67.80;;;;;;10264654;28;20305;-69
2022/11/22 12:21:45;;;;;;;;;;;15.50;67.80;;;;;;10264508;28;19934;-69
2022/11/22 12:26:47;;;;;;;;;;;15.50;67.80;;;;;;10212207;28;19974;-69
2022/11/22 12:32:05;;;;;;;;;;;15.50;67.90;;;;;;10262515;28;20514;-68
2022/11/22 12:37:24;;;;;;;;;;;15.50;67.90;;;;;;10264248;28;19934;-68
2022/11/22 12:42:42;;;;;;;;;;;15.40;68.00;;;;;;10263694;28;20334;-69
2022/11/22 12:47:45;;;;;;;;;;;15.40;68.00;;;;;;10264046;28;20053;-69
2022/11/22 12:52:50;;;;;;;;;;;15.30;67.90;;;;;;10245453;28;20033;-68
2022/11/22 12:58:18;;;;;;;;;;;15.40;68.00;;;;;;10263545;28;20030;-69
2022/11/22 13:03:22;;;;;;;;;;;15.30;68.10;;;;;;10247130;28;19981;-67
2022/11/22 13:08:34;;;;;;;;;;;15.30;68.10;;;;;;10262739;28;19989;-68
2022/11/22 13:13:37;;;;;;;;;;;15.20;68.10;;;;;;10262402;28;19935;-68
2022/11/22 13:18:42;;;;;;;;;;;15.20;68.10;;;;;;10263060;28;20029;-69
2022/11/22 13:23:55;;;;;;;;;;;15.20;68.30;;;;;;10262550;28;20018;-69
2022/11/22 13:28:58;;;;;;;;;;;15.40;68.30;;;;;;10262293;28;20030;-69
2022/11/22 13:34:00;;;;;;;;;;;15.40;68.00;;;;;;10261908;28;19935;-68
2022/11/22 13:39:09;;;;;;;;;;;15.50;67.90;;;;;;10262202;28;19962;-68
2022/11/22 13:44:31;;;;;;;;;;;15.40;67.70;;;;;;10262398;28;19935;-68
2022/11/22 13:49:47;;;;;;;;;;;15.50;67.70;;;;;;10261875;28;19934;-69
2022/11/22 13:54:51;;;;;;;;;;;15.40;67.70;;;;;;10244885;28;20412;-68
2022/11/22 14:00:08;;;;;;;;;;;15.40;67.70;;;;;;10261200;28;19942;-68
2022/11/22 14:05:28;;;;;;;;;;;15.40;67.80;;;;;;10261801;28;19934;-69
2022/11/22 14:10:49;;;;;;;;;;;15.30;67.80;;;;;;10261249;28;19974;-68
2022/11/22 14:16:04;;;;;;;;;;;15.30;67.90;;;;;;10261009;28;19965;-69
2022/11/22 14:21:08;;;;;;;;;;;15.30;67.90;;;;;;10259793;28;19978;-68
2022/11/22 14:26:20;;;;;;;;;;;15.20;67.90;;;;;;10261244;28;19941;-68
2022/11/22 14:31:23;;;;;;;;;;;15.20;68.00;;;;;;10260527;28;20033;-68
2022/11/22 14:36:24;;;;;;;;;;;15.20;68.10;;;;;;10260872;28;20017;-68
2022/11/22 14:41:26;;;;;;;;;;;15.20;68.10;;;;;;10260931;28;20386;-68
2022/11/22 14:46:35;;;;;;;;;;;15.20;68.30;;;;;;10258886;28;20036;-68
2022/11/22 14:51:55;;;;;;;;;;;15.30;68.30;;;;;;10260133;28;19935;-69
2022/11/22 14:56:58;;;;;;;;;;;15.40;68.00;;;;;;10260347;28;19935;-68
2022/11/22 15:02:17;;;;;;;;;;;15.40;67.80;;;;;;10260389;28;19982;-68
2022/11/22 15:07:55;;;;;;;;;;;15.40;67.60;;;;;;10260328;28;20428;-67
2022/11/22 15:13:38;;;;;;;;;;;15.40;67.60;;;;;;10215079;28;20390;-68
2022/11/22 15:18:45;;;;;;;;;;;15.40;67.70;;;;;;10259515;28;19946;-69
2022/11/22 15:24:20;;;;;;;;;;;15.30;67.60;;;;;;10258862;28;19935;-68
2022/11/22 15:29:41;;;;;;;;;;;15.30;67.70;;;;;;10257627;28;19935;-68
2022/11/22 15:35:03;;;;;;;;;;;15.30;67.80;;;;;;10264799;28;19978;-68
2022/11/22 15:40:25;;;;;;;;;;;15.20;67.80;;;;;;10264577;28;19941;-68
2022/11/22 15:45:47;;;;;;;;;;;15.20;67.80;;;;;;10265748;28;19957;-68
2022/11/22 15:51:12;;;;;;;;;;;15.20;67.90;;;;;;10250836;28;19935;-68
2022/11/22 15:56:56;;;;;;;;;;;15.20;67.90;;;;;;10265439;28;19935;-67
2022/11/22 16:02:12;;;;;;;;;;;15.10;67.90;;;;;;10264010;28;19941;-68
2022/11/22 16:07:22;;;;;;;;;;;15.10;69.10;;;;;;10264535;28;20437;-68
2022/11/22 16:12:28;;;;;;;;;;;15.20;68.00;;;;;;10264297;28;19935;-70
2022/11/22 16:17:36;;;;;;;;;;;15.30;67.70;;;;;;10264513;28;20022;-69
2022/11/22 16:22:38;;;;;;;;;;;15.40;67.60;;;;;;10264116;28;20454;-69
2022/11/22 16:27:46;;;;;;;;;;;15.40;67.50;;;;;;10263480;28;20496;-68
2022/11/22 16:32:52;;;;;;;;;;;15.40;67.50;;;;;;10262931;28;19935;-69
2022/11/22 16:37:54;;;;;;;;;;;15.30;67.50;;;;;;10263237;28;19935;-68
2022/11/22 16:42:56;;;;;;;;;;;15.30;67.60;;;;;;10261505;28;20030;-69
2022/11/22 16:47:57;;;;;;;;;;;15.50;67.70;;;;;;10263148;28;20062;-69
2022/11/22 16:53:19;;;;;;;;;;;15.90;67.10;;;;;;10261844;28;19942;-69
2022/11/22 16:58:22;;;;;;;;;;;16.40;66.20;;;;;;10262551;28;20009;-70
2022/11/22 17:03:31;;;;;;;;;;;16.80;65.40;;;;;;10262171;28;20023;-68
2022/11/22 17:08:33;;;;;;;;;;;17.10;64.70;;;;;;10262364;28;20022;-70
2022/11/22 17:13:35;;;;;;;;;;;17.40;64.00;;;;;;10262649;28;19953;-70
2022/11/22 17:18:37;;;;;;;;;;;17.50;63.50;;;;;;10261288;28;19966;-68
2022/11/22 17:23:39;;;;;;;;;;;17.50;63.30;;;;;;10244288;28;19978;-69
2022/11/22 17:28:41;;;;;;;;;;;17.40;63.30;;;;;;10261956;28;19935;-69
2022/11/22 17:33:43;;;;;;;;;;;17.30;63.70;;;;;;10260027;28;20472;-69
2022/11/22 17:38:45;;;;;;;;;;;17.30;63.70;;;;;;10262270;28;19974;-69
2022/11/22 17:43:48;;;;;;;;;;;17.40;63.50;;;;;;10243375;28;20022;-69
2022/11/22 17:48:51;;;;;;;;;;;17.40;63.50;;;;;;10260957;28;19934;-69
2022/11/22 17:53:52;;;;;;;;;;;17.70;65.00;;;;;;10260455;28;19935;-67
2022/11/22 17:58:54;;;;;;;;;;;17.90;64.70;;;;;;10293615;28;19947;-68
2022/11/22 18:03:56;;;;;;;;;;;18.00;66.20;;;;;;10300651;28;19985;-67
2022/11/22 18:08:59;;;;;;;;;;;18.10;64.30;;;;;;10301033;28;20045;-68
2022/11/22 18:14:00;;;;;;;;;;;18.10;64.30;;;;;;10300864;28;20033;-67
2022/11/22 18:19:02;;;;;;;;;;;18.00;64.50;;;;;;10301225;28;20050;-67
2022/11/22 18:24:05;;;;;;;;;;;18.00;65.40;;;;;;10299189;28;19965;-66
2022/11/22 18:29:07;;;;;;;;;;;17.90;65.30;;;;;;10299838;28;19938;-66
2022/11/22 18:34:29;;;;;;;;;;;17.90;65.40;;;;;;10299781;28;20415;-66
2022/11/22 18:39:35;;;;;;;;;;;17.80;65.50;;;;;;10299434;28;20436;-65
2022/11/22 18:44:56;;;;;;;;;;;17.70;65.80;;;;;;10298911;28;19941;-66
2022/11/22 18:49:58;;;;;;;;;;;17.60;65.80;;;;;;10297873;28;20021;-67
2022/11/22 18:55:00;;;;;;;;;;;17.80;65.90;;;;;;10298198;28;19934;-66
2022/11/22 19:00:02;;;;;;;;;;;17.90;65.50;;;;;;10296322;28;19992;-67
2022/11/22 19:05:04;;;;;;;;;;;17.90;65.10;;;;;;10298246;28;20029;-66
2022/11/22 19:10:06;;;;;;;;;;;17.90;65.00;;;;;;10305336;28;19934;-67
2022/11/22 19:15:08;;;;;;;;;;;17.80;65.20;;;;;;10305420;28;19940;-68
2022/11/22 19:20:11;;;;;;;;;;;17.80;65.20;;;;;;10304836;28;20059;-67
2022/11/22 19:25:35;;;;;;;;;;;18.00;65.00;;;;;;10305873;28;19942;-66
2022/11/22 19:30:37;;;;;;;;;;;18.10;64.60;;;;;;10304712;28;20835;-67
2022/11/22 19:35:54;;;;;;;;;;;18.10;64.50;;;;;;10304104;28;20825;-68
2022/11/22 19:40:56;;;;;;;;;;;18.00;64.50;;;;;;10303806;28;19934;-67
2022/11/22 19:46:01;;;;;;;;;;;17.90;64.60;;;;;;10304706;28;19934;-67
2022/11/22 19:51:06;;;;;;;;;;;18.00;64.60;;;;;;10305127;28;19958;-66
2022/11/22 19:56:17;;;;;;;;;;;18.10;64.40;;;;;;10304033;28;20006;-68
2022/11/22 20:01:20;;;;;;;;;;;18.10;64.20;;;;;;10302742;28;19935;-69
2022/11/22 20:06:22;;;;;;;;;;;18.00;64.30;;;;;;10300939;28;19969;-67
2022/11/22 20:11:24;;;;;;;;;;;17.90;64.50;;;;;;10301447;28;19938;-68
2022/11/22 20:16:27;;;;;;;;;;;18.00;64.40;;;;;;10283467;28;20037;-67
2022/11/22 20:21:30;;;;;;;;;;;18.10;64.20;;;;;;10301107;28;20091;-66
2022/11/22 20:26:32;;;;;;;;;;;18.10;64.00;;;;;;10301290;28;19969;-67
2022/11/22 20:31:34;;;;;;;;;;;18.00;64.10;;;;;;10300200;28;19997;-67
2022/11/22 20:36:36;;;;;;;;;;;18.00;64.30;;;;;;10301011;28;20473;-69
2022/11/22 20:41:38;;;;;;;;;;;18.00;64.30;;;;;;10300232;28;19989;-69
2022/11/22 20:46:42;;;;;;;;;;;18.00;64.20;;;;;;10300673;28;19977;-69
2022/11/22 20:51:43;;;;;;;;;;;17.90;64.20;;;;;;10300003;28;20037;-68
2022/11/22 20:56:46;;;;;;;;;;;17.70;64.30;;;;;;10298290;28;20029;-68
2022/11/22 21:01:48;;;;;;;;;;;17.60;64.60;;;;;;10299636;28;19935;-68
2022/11/22 21:06:50;;;;;;;;;;;17.50;64.90;;;;;;10235770;28;1914655;-69
2022/11/22 21:11:51;;;;;;;;;;;17.30;65.60;;;;;;10302569;28;19970;-69
2022/11/22 21:16:53;;;;;;;;;;;17.20;65.50;;;;;;10301239;28;19934;-68
2022/11/22 21:21:55;;;;;;;;;;;17.10;65.80;;;;;;10301665;28;20044;-67
2022/11/22 21:26:56;;;;;;;;;;;17.00;66.20;;;;;;10301489;28;20497;-67
2022/11/22 21:31:58;;;;;;;;;;;16.90;66.40;;;;;;10300509;28;20025;-67
2022/11/22 21:37:00;;;;;;;;;;;16.80;66.70;;;;;;10301786;28;19988;-67
2022/11/22 21:42:01;;;;;;;;;;;16.70;66.90;;;;;;10301195;28;19940;-68
2022/11/22 21:47:03;;;;;;;;;;;16.70;67.30;;;;;;10300751;28;20348;-68
2022/11/22 21:52:05;;;;;;;;;;;16.60;67.30;;;;;;10301352;28;20416;-69
2022/11/22 21:57:07;;;;;;;;;;;16.60;67.50;;;;;;10301032;28;20037;-68
2022/11/22 22:02:08;;;;;;;;;;;16.50;67.60;;;;;;10300043;28;19979;-67
2022/11/22 22:07:10;;;;;;;;;;;16.40;67.80;;;;;;10300667;28;19934;-69
2022/11/22 22:12:30;;;;;;;;;;;16.40;67.90;;;;;;10299641;28;19961;-68
2022/11/22 22:17:32;;;;;;;;;;;16.40;68.10;;;;;;10300008;28;19969;-68
2022/11/22 22:22:34;;;;;;;;;;;16.30;68.20;;;;;;10300664;28;19941;-69
2022/11/22 22:27:36;;;;;;;;;;;16.30;68.30;;;;;;10298456;28;20389;-70
2022/11/22 22:32:38;;;;;;;;;;;16.20;68.40;;;;;;10299596;28;19934;-69
2022/11/22 22:37:39;;;;;;;;;;;16.20;68.50;;;;;;10300990;28;20510;-69
2022/11/22 22:42:41;;;;;;;;;;;16.20;68.60;;;;;;10304646;28;19981;-69
2022/11/22 22:47:43;;;;;;;;;;;16.10;68.60;;;;;;10307376;28;19934;-69
2022/11/22 22:52:45;;;;;;;;;;;16.10;68.80;;;;;;10307625;28;20037;-69
2022/11/22 22:57:47;;;;;;;;;;;16.00;68.80;;;;;;10305266;28;20461;-69
2022/11/22 23:02:49;;;;;;;;;;;16.00;68.90;;;;;;10305277;28;19985;-69
2022/11/22 23:07:51;;;;;;;;;;;16.00;68.90;;;;;;10305947;28;19938;-69
2022/11/22 23:12:53;;;;;;;;;;;16.00;68.90;;;;;;10306492;28;20033;-69
2022/11/22 23:17:54;;;;;;;;;;;15.90;69.00;;;;;;10306624;28;20423;-69
2022/11/22 23:22:56;;;;;;;;;;;15.90;69.00;;;;;;10306135;28;19992;-68
2022/11/22 23:27:58;;;;;;;;;;;15.90;69.00;;;;;;10305270;28;19934;-69
2022/11/22 23:33:00;;;;;;;;;;;15.80;69.00;;;;;;10306025;28;20425;-70
2022/11/22 23:38:02;;;;;;;;;;;15.80;69.10;;;;;;10306115;28;19942;-68
2022/11/22 23:43:04;;;;;;;;;;;15.80;70.00;;;;;;10304725;28;19946;-68
2022/11/22 23:48:06;;;;;;;;;;;15.90;69.10;;;;;;10305198;28;20085;-68
2022/11/22 23:53:07;;;;;;;;;;;16.00;68.70;;;;;;10303823;28;20195;-68
2022/11/22 23:58:09;;;;;;;;;;;16.00;68.50;;;;;;10305171;28;20024;-69
